createdAt,value
2022-07-25T00:02:58.319Z,65.91
2022-07-25T00:06:00.717Z,65.93
2022-07-25T00:09:02.755Z,66.69
2022-07-25T00:12:05.120Z,67.09
2022-07-25T00:15:08.652Z,66.92
2022-07-25T00:18:10.809Z,66.64
2022-07-25T00:21:13.197Z,67.26
2022-07-25T00:24:15.289Z,67.65
2022-07-25T00:27:17.380Z,67.78
2022-07-25T00:30:19.499Z,67.38
2022-07-25T00:33:21.577Z,67.23
2022-07-25T00:36:23.663Z,67.66
2022-07-25T00:39:25.736Z,68.13
2022-07-25T00:42:27.910Z,68.49
2022-07-25T00:45:30.071Z,68.34
2022-07-25T00:48:32.140Z,68.05
2022-07-25T00:51:34.263Z,67.56
2022-07-25T00:54:36.499Z,68.04
2022-07-25T00:57:38.676Z,68.67
2022-07-25T01:00:41.048Z,68.49
2022-07-25T01:03:43.639Z,68.02
2022-07-25T01:06:45.839Z,68.25
2022-07-25T01:09:48.046Z,69.11
2022-07-25T01:12:51.988Z,69.07
2022-07-25T01:15:54.258Z,69.47
2022-07-25T01:18:56.405Z,69.75
2022-07-25T01:21:58.464Z,69.22
2022-07-25T01:25:00.610Z,69.32
2022-07-25T01:28:03.336Z,70.04
2022-07-25T01:31:06.201Z,70.13
2022-07-25T01:34:08.545Z,70.09
2022-07-25T01:37:10.875Z,70.19
2022-07-25T01:40:13.981Z,69.98
2022-07-25T01:43:16.321Z,69.48
2022-07-25T01:46:18.797Z,69.72
2022-07-25T01:49:21.115Z,70.00
2022-07-25T01:52:23.250Z,70.00
2022-07-25T01:55:25.441Z,69.88
2022-07-25T01:58:30.066Z,70.08
2022-07-25T02:01:32.272Z,70.17
2022-07-25T02:04:35.945Z,70.01
2022-07-25T02:07:38.353Z,69.93
2022-07-25T02:10:40.460Z,70.07
2022-07-25T02:13:42.664Z,70.11
2022-07-25T02:16:44.921Z,70.13
2022-07-25T02:19:47.152Z,70.20
2022-07-25T02:22:49.303Z,70.49
2022-07-25T02:25:51.351Z,70.93
2022-07-25T02:28:53.443Z,70.66
2022-07-25T02:31:55.644Z,70.77
2022-07-25T02:34:58.651Z,70.91
2022-07-25T02:38:00.857Z,71.20
2022-07-25T02:41:03.134Z,70.91
2022-07-25T02:44:06.700Z,70.12
2022-07-25T02:47:09.177Z,70.57
2022-07-25T02:50:14.599Z,71.18
2022-07-25T02:53:28.914Z,71.19
2022-07-25T02:56:39.232Z,71.20
2022-07-25T02:59:41.308Z,71.02
2022-07-25T03:02:43.643Z,70.87
2022-07-25T03:05:45.754Z,70.92
2022-07-25T03:08:47.948Z,71.54
2022-07-25T03:11:52.063Z,71.64
2022-07-25T03:14:54.192Z,71.43
2022-07-25T03:17:56.315Z,71.69
2022-07-25T03:20:58.400Z,71.66
2022-07-25T03:24:00.460Z,71.66
2022-07-25T03:27:02.654Z,72.39
2022-07-25T03:30:05.372Z,72.02
2022-07-25T03:33:07.559Z,72.35
2022-07-25T03:36:10.613Z,72.28
2022-07-25T03:39:13.127Z,72.37
2022-07-25T03:42:15.446Z,71.85
2022-07-25T03:45:18.156Z,71.89
2022-07-25T03:48:20.185Z,71.95
2022-07-25T03:51:22.280Z,72.17
2022-07-25T03:54:24.365Z,72.69
2022-07-25T03:57:26.609Z,72.23
2022-07-25T04:00:28.656Z,72.06
2022-07-25T04:03:30.673Z,72.25
2022-07-25T04:06:33.665Z,72.36
2022-07-25T04:09:35.746Z,72.63
2022-07-25T04:12:37.934Z,72.28
2022-07-25T04:15:39.956Z,72.09
2022-07-25T04:18:42.410Z,71.87
2022-07-25T04:21:45.925Z,71.94
2022-07-25T04:24:47.977Z,71.68
2022-07-25T04:27:50.109Z,71.58
2022-07-25T04:30:52.512Z,71.84
2022-07-25T04:33:54.679Z,71.57
2022-07-25T04:36:56.817Z,71.68
2022-07-25T04:39:58.872Z,71.86
2022-07-25T04:43:01.177Z,71.43
2022-07-25T04:46:03.502Z,71.33
2022-07-25T04:49:05.790Z,70.83
2022-07-25T04:52:08.009Z,70.88
2022-07-25T04:55:10.357Z,71.12
2022-07-25T04:58:12.587Z,70.89
2022-07-25T05:01:14.664Z,70.46
2022-07-25T05:04:16.936Z,70.75
2022-07-25T05:07:19.274Z,70.83
2022-07-25T05:10:21.439Z,70.70
2022-07-25T05:13:23.493Z,70.37
2022-07-25T05:16:26.208Z,70.00
2022-07-25T05:19:28.457Z,70.03
2022-07-25T05:22:30.554Z,69.97
2022-07-25T06:26:00.656Z,61.25
2022-07-25T06:29:02.905Z,61.91
2022-07-25T06:32:15.664Z,61.34
2022-07-25T06:35:19.044Z,60.14
2022-07-25T06:38:21.194Z,58.92
2022-07-25T06:41:23.321Z,58.09
2022-07-25T06:44:26.245Z,56.12
2022-07-25T06:47:31.727Z,53.15
2022-07-25T06:50:37.705Z,52.17
2022-07-25T06:53:39.744Z,51.34
2022-07-25T06:56:41.868Z,48.83
2022-07-25T06:59:45.274Z,47.46
2022-07-25T07:02:49.801Z,47.28
2022-07-25T07:05:54.537Z,45.15
2022-07-25T07:08:56.735Z,45.68
2022-07-25T07:11:59.157Z,43.58
2022-07-25T07:15:01.305Z,41.59
2022-07-25T07:18:04.144Z,41.68
2022-07-25T07:21:06.517Z,40.72
2022-07-25T07:24:24.278Z,40.51
2022-07-25T07:27:26.829Z,39.29
2022-07-25T07:30:58.457Z,39.11
2022-07-25T07:33:51.086Z,38.02
2022-07-25T07:36:53.212Z,37.59
2022-07-25T07:39:55.288Z,37.43
2022-07-25T07:42:58.729Z,36.77
2022-07-25T07:46:01.776Z,36.21
2022-07-25T07:49:04.618Z,35.61
2022-07-25T07:52:07.161Z,35.41
2022-07-25T07:55:29.201Z,34.74
2022-07-25T07:58:31.413Z,34.96
2022-07-25T08:01:33.991Z,35.30
2022-07-25T08:04:36.252Z,34.49
2022-07-25T08:07:38.452Z,33.55
2022-07-25T08:10:43.814Z,33.02
2022-07-25T08:13:46.002Z,32.79
2022-07-25T08:16:48.032Z,31.83
2022-07-25T08:19:50.120Z,32.21
2022-07-25T08:22:56.392Z,30.79
2022-07-25T08:25:58.947Z,31.65
2022-07-25T08:29:18.163Z,32.68
2022-07-25T08:32:21.665Z,32.40
2022-07-25T08:35:26.270Z,30.88
2022-07-25T08:38:29.581Z,30.62
2022-07-25T08:41:34.158Z,29.51
2022-07-25T08:44:40.956Z,29.26
2022-07-25T08:47:44.074Z,29.69
2022-07-25T08:50:47.551Z,28.51
2022-07-25T08:53:50.864Z,28.50
2022-07-25T08:56:52.898Z,30.26
2022-07-25T08:59:59.000Z,28.66
2022-07-25T09:03:03.170Z,28.22
2022-07-25T09:06:15.801Z,26.71
2022-07-25T09:09:18.538Z,27.25
2022-07-25T09:12:27.140Z,27.50
2022-07-25T09:15:32.073Z,27.15
2022-07-25T09:18:36.544Z,28.09
2022-07-25T09:21:40.080Z,27.58
2022-07-25T09:24:46.319Z,26.81
2022-07-25T09:27:48.447Z,27.00
2022-07-25T09:30:55.790Z,26.68
2022-07-25T09:33:59.680Z,26.39
2022-07-25T09:37:04.133Z,27.21
2022-07-25T09:40:15.245Z,26.05
2022-07-25T09:43:17.237Z,26.38
2022-07-25T09:46:32.732Z,25.41
2022-07-25T09:49:45.497Z,25.63
2022-07-25T09:52:47.863Z,25.83
2022-07-25T09:55:50.121Z,25.10
2022-07-25T09:58:53.078Z,25.42
2022-07-25T10:02:10.498Z,25.78
2022-07-25T10:05:32.920Z,26.32
2022-07-25T10:08:40.363Z,25.40
2022-07-25T10:12:05.465Z,25.23
2022-07-25T10:15:12.375Z,26.37
2022-07-25T10:18:15.821Z,27.73
2022-07-25T10:21:27.989Z,26.18
2022-07-25T10:24:35.392Z,25.94
2022-07-25T10:27:50.294Z,25.44
2022-07-25T10:30:58.826Z,25.23
2022-07-25T10:34:05.782Z,25.27
2022-07-25T10:37:15.031Z,25.35
2022-07-25T10:40:32.403Z,24.96
2022-07-25T10:43:39.018Z,25.31
2022-07-25T10:46:44.868Z,24.90
2022-07-25T10:53:45.132Z,23.72
2022-07-25T10:56:56.817Z,23.91
2022-07-25T11:00:09.411Z,23.97
2022-07-25T11:03:17.825Z,24.74
2022-07-25T11:06:38.494Z,24.42
2022-07-25T11:09:42.438Z,24.21
2022-07-25T11:12:48.521Z,24.30
2022-07-25T11:15:50.883Z,23.39
2022-07-25T11:18:54.627Z,23.46
2022-07-25T11:21:59.674Z,23.63
2022-07-25T11:25:03.298Z,23.00
2022-07-25T11:28:05.430Z,22.57
2022-07-25T11:31:07.642Z,22.39
2022-07-25T11:34:09.961Z,22.68
2022-07-25T11:37:13.160Z,22.24
2022-07-25T11:40:17.343Z,22.10
2022-07-25T11:43:24.046Z,22.44
2022-07-25T11:46:26.289Z,23.51
2022-07-25T11:49:28.772Z,24.08
2022-07-25T11:52:39.943Z,23.90
2022-07-25T11:55:45.494Z,24.19
2022-07-25T11:59:06.222Z,23.24
2022-07-25T12:02:08.570Z,23.25
2022-07-25T12:05:12.819Z,23.42
2022-07-25T12:08:17.345Z,22.78
2022-07-25T12:11:22.641Z,22.38
2022-07-25T12:14:24.701Z,22.45
2022-07-25T12:17:26.748Z,23.08
2022-07-25T12:20:48.221Z,22.91
2022-07-25T12:23:50.237Z,21.60
2022-07-25T12:26:52.511Z,22.53
2022-07-25T12:29:54.809Z,22.11
2022-07-25T12:32:59.047Z,22.32
2022-07-25T12:36:06.581Z,22.83
2022-07-25T12:39:10.760Z,22.77
2022-07-25T12:42:12.928Z,22.27
2022-07-25T12:45:17.330Z,21.94
2022-07-25T12:48:19.460Z,22.32
2022-07-25T12:51:22.302Z,21.65
2022-07-25T12:54:27.578Z,21.55
2022-07-25T12:57:29.693Z,21.76
2022-07-25T13:00:31.737Z,21.60
2022-07-25T13:03:33.891Z,21.30
2022-07-25T13:06:38.742Z,21.08
2022-07-25T13:09:41.138Z,20.70
2022-07-25T13:12:43.314Z,21.79
2022-07-25T13:15:45.589Z,21.49
2022-07-25T13:18:47.768Z,21.73
2022-07-25T13:21:49.815Z,21.29
2022-07-25T13:24:52.892Z,21.20
2022-07-25T13:27:55.070Z,20.50
2022-07-25T13:30:57.300Z,20.50
2022-07-25T13:33:59.415Z,19.68
2022-07-25T13:37:01.633Z,19.59
2022-07-25T13:40:04.660Z,20.08
2022-07-25T13:43:07.030Z,20.08
2022-07-25T13:46:09.521Z,19.78
2022-07-25T13:49:12.250Z,19.30
2022-07-25T13:52:14.552Z,19.18
2022-07-25T13:55:16.695Z,19.33
2022-07-25T13:58:18.838Z,18.92
2022-07-25T14:01:21.819Z,18.86
2022-07-25T14:04:24.239Z,19.46
2022-07-25T14:07:26.357Z,18.58
2022-07-25T14:10:28.517Z,18.04
2022-07-25T14:13:30.639Z,17.80
2022-07-25T14:16:34.017Z,15.92
2022-07-25T14:19:36.302Z,14.53
2022-07-25T14:22:39.879Z,13.33
2022-07-25T14:25:47.829Z,13.63
2022-07-25T14:28:50.115Z,12.22
2022-07-25T14:31:52.267Z,12.15
2022-07-25T14:34:54.396Z,12.31
2022-07-25T14:37:56.513Z,11.73
2022-07-25T14:40:58.535Z,11.15
2022-07-25T14:44:00.917Z,10.92
2022-07-25T14:47:03.024Z,10.46
2022-07-25T14:50:06.164Z,10.99
2022-07-25T14:53:08.290Z,11.47
2022-07-25T14:56:10.363Z,11.21
2022-07-25T14:59:12.628Z,12.56
2022-07-25T15:02:14.821Z,11.24
2022-07-25T15:05:17.014Z,10.96
2022-07-25T15:08:19.162Z,10.86
2022-07-25T15:11:21.840Z,11.48
2022-07-25T15:14:23.895Z,10.53
2022-07-25T15:17:26.044Z,10.11
2022-07-25T15:20:28.390Z,9.84
2022-07-25T15:23:31.194Z,9.64
2022-07-25T15:26:33.511Z,10.13
2022-07-25T15:29:35.858Z,9.21
2022-07-25T15:32:39.271Z,9.31
2022-07-25T15:35:42.035Z,9.81
2022-07-25T15:38:45.004Z,10.10
2022-07-25T15:41:47.048Z,9.86
2022-07-25T15:44:49.406Z,9.95
2022-07-25T15:47:52.145Z,9.24
2022-07-25T15:50:56.354Z,8.73
2022-07-25T15:53:58.407Z,8.60
2022-07-25T15:57:00.560Z,8.67
2022-07-25T16:00:03.963Z,7.05
2022-07-25T16:03:10.581Z,6.71
2022-07-25T16:06:18.416Z,7.11
2022-07-25T16:09:21.245Z,7.97
2022-07-25T16:12:28.310Z,7.80
2022-07-25T16:15:31.199Z,7.78
2022-07-25T16:18:33.346Z,6.94
2022-07-25T16:21:35.482Z,8.10
2022-07-25T16:24:40.645Z,9.13
2022-07-25T16:27:42.755Z,10.95
2022-07-25T16:30:44.829Z,14.82
2022-07-25T16:33:46.954Z,16.72
2022-07-25T16:36:49.018Z,18.04
2022-07-25T16:39:51.046Z,17.94
2022-07-25T16:42:55.896Z,19.48
2022-07-25T16:45:58.114Z,20.50
2022-07-25T16:49:00.252Z,22.68
2022-07-25T16:52:02.340Z,25.19
2022-07-25T16:55:05.546Z,26.90
2022-07-25T16:58:07.625Z,27.44
2022-07-25T17:01:09.761Z,28.70
2022-07-25T17:04:11.829Z,28.55
2022-07-25T17:07:14.131Z,29.19
2022-07-25T17:10:16.193Z,30.55
2022-07-25T17:13:18.261Z,31.75
2022-07-25T17:16:20.428Z,32.59
2022-07-25T17:19:22.569Z,33.38
2022-07-25T17:22:24.660Z,33.83
2022-07-25T17:25:27.394Z,34.74
2022-07-25T17:28:29.521Z,35.00
2022-07-25T17:31:31.644Z,35.04
2022-07-25T17:34:34.069Z,35.94
2022-07-25T17:37:36.219Z,37.03
2022-07-25T17:40:38.433Z,37.66
2022-07-25T17:43:40.726Z,38.55
2022-07-25T17:46:42.993Z,38.60
2022-07-25T17:49:48.707Z,39.09
2022-07-25T17:52:51.154Z,39.45
2022-07-25T17:55:53.497Z,40.19
2022-07-25T17:58:55.752Z,40.23
2022-07-25T18:01:59.286Z,40.94
2022-07-25T18:05:01.417Z,42.16
2022-07-25T18:08:04.503Z,42.42
2022-07-25T18:11:06.628Z,43.00
2022-07-25T18:14:09.555Z,43.21
2022-07-25T18:17:12.271Z,43.85
2022-07-25T18:20:16.561Z,43.35
2022-07-25T18:23:18.692Z,44.03
2022-07-25T18:26:22.082Z,44.14
2022-07-25T18:29:24.519Z,45.19
2022-07-25T18:32:26.705Z,45.54
2022-07-25T18:35:31.704Z,45.91
2022-07-25T18:38:33.830Z,45.77
2022-07-25T18:41:37.467Z,46.24
2022-07-25T18:44:39.551Z,46.72
2022-07-25T18:47:42.298Z,46.66
2022-07-25T18:50:44.417Z,46.68
2022-07-25T18:53:48.478Z,46.86
2022-07-25T18:56:50.943Z,47.64
2022-07-25T18:59:53.021Z,48.29
2022-07-25T19:02:55.191Z,48.68
2022-07-25T19:06:02.831Z,49.08
2022-07-25T19:09:05.725Z,49.13
2022-07-25T19:12:08.234Z,49.84
2022-07-25T19:15:10.637Z,50.38
2022-07-25T19:18:12.755Z,51.26
2022-07-25T19:21:15.623Z,51.85
2022-07-25T19:24:18.263Z,52.24
2022-07-25T19:27:20.711Z,52.62
2022-07-25T19:30:22.990Z,53.64
2022-07-25T19:33:25.765Z,53.81
2022-07-25T19:36:38.210Z,54.16
2022-07-25T19:39:40.314Z,54.56
2022-07-25T19:42:42.630Z,55.07
2022-07-25T19:45:44.867Z,55.40
2022-07-25T19:48:47.245Z,55.96
2022-07-25T19:51:49.419Z,56.70
2022-07-25T19:54:51.584Z,56.91
2022-07-25T19:57:53.637Z,57.02
2022-07-25T20:00:55.714Z,57.01
2022-07-25T20:03:57.729Z,57.22
2022-07-25T20:07:02.520Z,57.73
2022-07-25T20:10:05.588Z,58.04
2022-07-25T20:13:07.824Z,58.21
2022-07-25T20:16:09.972Z,57.71
2022-07-25T20:19:12.480Z,58.18
2022-07-25T20:22:14.533Z,58.43
2022-07-25T20:25:16.644Z,59.05
2022-07-25T20:28:18.986Z,59.71
2022-07-25T20:31:24.484Z,59.80
2022-07-25T20:34:26.586Z,60.41
2022-07-25T20:37:28.613Z,60.79
2022-07-25T20:40:30.824Z,61.09
2022-07-25T20:43:34.913Z,60.81
2022-07-25T20:46:37.162Z,60.73
2022-07-25T20:49:39.853Z,61.49
2022-07-25T20:52:41.968Z,62.12
2022-07-25T20:55:44.047Z,62.13
2022-07-25T20:58:46.113Z,62.38
2022-07-25T21:01:48.425Z,63.14
2022-07-25T21:04:50.654Z,63.49
2022-07-25T21:07:53.203Z,63.49
2022-07-25T21:10:55.435Z,63.83
2022-07-25T21:13:57.633Z,64.08
2022-07-25T21:17:00.720Z,64.70
2022-07-25T21:20:03.433Z,64.99
2022-07-25T21:23:05.577Z,65.66
2022-07-25T21:26:07.695Z,65.85
2022-07-25T21:29:10.248Z,66.13
2022-07-25T21:32:14.012Z,66.70
2022-07-25T21:35:16.164Z,66.85
2022-07-25T21:38:27.633Z,67.30
2022-07-25T21:41:30.548Z,67.21
2022-07-25T21:44:32.711Z,67.46
2022-07-25T21:47:35.279Z,68.03
2022-07-25T21:50:44.002Z,67.44
2022-07-25T21:53:47.947Z,67.43
2022-07-25T21:56:50.097Z,67.60
2022-07-25T21:59:52.155Z,68.09
2022-07-25T22:02:54.157Z,67.72
2022-07-25T22:05:56.421Z,67.87
2022-07-25T22:08:58.572Z,67.57
2022-07-25T22:12:00.642Z,67.58
2022-07-25T22:15:03.022Z,67.19
2022-07-25T22:18:05.874Z,67.49
2022-07-25T22:21:08.050Z,67.54
2022-07-25T22:24:10.254Z,68.08
2022-07-25T22:27:12.476Z,67.70
2022-07-25T22:30:19.187Z,68.34
2022-07-25T22:33:21.639Z,68.33
2022-07-25T22:36:23.675Z,68.44
2022-07-25T22:39:25.725Z,68.42
2022-07-25T22:42:28.831Z,68.10
2022-07-25T22:45:31.220Z,68.42
2022-07-25T22:48:33.356Z,68.38
2022-07-25T22:51:35.475Z,68.54
2022-07-25T22:54:37.560Z,68.59
2022-07-25T22:57:39.696Z,68.47
2022-07-25T23:00:41.993Z,68.67
2022-07-25T23:03:44.168Z,68.53
2022-07-25T23:06:46.551Z,68.69
2022-07-25T23:09:48.757Z,69.14
2022-07-25T23:12:50.839Z,69.20
2022-07-25T23:15:53.158Z,69.25
2022-07-25T23:18:55.959Z,69.50
2022-07-25T23:21:58.005Z,69.57
2022-07-25T23:25:00.074Z,69.60
2022-07-25T23:28:02.417Z,69.30
2022-07-25T23:31:04.954Z,69.20
2022-07-25T23:34:07.428Z,69.02
2022-07-25T23:37:09.600Z,68.73
2022-07-25T23:40:12.515Z,68.90
2022-07-25T23:43:15.148Z,68.71
2022-07-25T23:46:27.698Z,68.78
2022-07-25T23:49:31.553Z,69.13
2022-07-25T23:52:33.787Z,68.64
2022-07-25T23:55:35.818Z,68.25
2022-07-25T23:58:37.871Z,67.96
